createdAt,value
2024-04-14T00:04:49.245Z,1012.08
2024-04-14T00:10:04.134Z,1012.12
2024-04-14T00:15:19.005Z,1012.08
2024-04-14T00:20:33.823Z,1012.11
2024-04-14T00:25:48.728Z,1012.11
2024-04-14T00:31:03.582Z,1012.15
2024-04-14T00:36:18.427Z,1012.15
2024-04-14T00:41:33.356Z,1012.24
2024-04-14T00:46:48.326Z,1012.34
2024-04-14T00:52:03.194Z,1012.42
2024-04-14T00:57:18.102Z,1012.47
2024-04-14T01:02:32.968Z,1012.49
2024-04-14T01:07:47.833Z,1012.57
2024-04-14T01:13:02.653Z,1012.65
2024-04-14T01:18:17.581Z,1012.69
2024-04-14T01:23:32.407Z,1012.70
2024-04-14T01:28:47.184Z,1012.69
2024-04-14T01:34:02.130Z,1012.73
2024-04-14T01:39:16.987Z,1012.78
2024-04-14T01:44:31.727Z,1012.75
2024-04-14T01:49:46.652Z,1012.83
2024-04-14T01:55:01.659Z,1012.85
2024-04-14T02:00:16.379Z,1012.87
2024-04-14T02:05:31.178Z,1012.88
2024-04-14T02:10:46.140Z,1012.91
2024-04-14T02:16:00.987Z,1012.96
2024-04-14T02:21:15.806Z,1013.05
2024-04-14T02:26:30.675Z,1013.08
2024-04-14T02:31:45.643Z,1013.07
2024-04-14T02:37:00.572Z,1013.08
2024-04-14T02:42:15.396Z,1013.13
2024-04-14T02:47:30.317Z,1013.14
2024-04-14T02:52:45.223Z,1013.19
2024-04-14T02:58:00.130Z,1013.18
2024-04-14T03:03:15.072Z,1013.21
2024-04-14T03:08:29.865Z,1013.20
2024-04-14T03:13:44.745Z,1013.16
2024-04-14T03:18:59.607Z,1013.09
2024-04-14T03:24:14.520Z,1013.18
2024-04-14T03:29:29.475Z,1013.22
2024-04-14T03:34:44.357Z,1013.22
2024-04-14T03:39:59.253Z,1013.22
2024-04-14T03:45:14.084Z,1013.22
2024-04-14T03:50:28.978Z,1013.28
2024-04-14T03:55:43.845Z,1013.34
2024-04-14T04:00:58.853Z,1013.32
2024-04-14T04:06:13.682Z,1013.39
2024-04-14T04:11:28.597Z,1013.40
2024-04-14T04:16:46.524Z,1013.39
2024-04-14T04:21:58.159Z,1013.38
2024-04-14T04:27:12.835Z,1013.37
2024-04-14T04:32:27.652Z,1013.36
2024-04-14T04:37:42.569Z,1013.47
2024-04-14T04:42:57.669Z,1013.52
2024-04-14T04:48:12.376Z,1013.60
2024-04-14T04:53:27.424Z,1013.55
2024-04-14T04:58:43.703Z,1013.56
2024-04-14T05:03:57.055Z,1013.58
2024-04-14T05:09:11.863Z,1013.66
2024-04-14T05:14:26.710Z,1013.66
2024-04-14T05:19:41.616Z,1013.71
2024-04-14T05:24:59.795Z,1013.72
2024-04-14T05:30:11.417Z,1013.73
2024-04-14T05:35:26.255Z,1013.71
2024-04-14T05:40:41.377Z,1013.78
2024-04-14T05:45:56.359Z,1013.82
2024-04-14T05:51:10.956Z,1013.85
2024-04-14T05:56:27.930Z,1013.94
2024-04-14T06:01:42.841Z,1013.94
2024-04-14T06:06:57.882Z,1014.05
2024-04-14T06:12:14.382Z,1014.20
2024-04-14T06:17:29.294Z,1014.21
2024-04-14T06:22:44.049Z,1014.17
2024-04-14T06:27:59.023Z,1014.17
2024-04-14T06:33:13.841Z,1014.21
2024-04-14T06:38:28.615Z,1014.25
2024-04-14T06:43:43.463Z,1014.22
2024-04-14T06:48:58.603Z,1014.23
2024-04-14T06:54:14.090Z,1014.18
2024-04-14T06:59:28.179Z,1014.12
2024-04-14T07:04:43.208Z,1014.16
2024-04-14T07:09:58.017Z,1014.27
2024-04-14T07:15:12.853Z,1014.28
2024-04-14T07:20:28.641Z,1014.25
2024-04-14T07:25:42.670Z,1014.30
2024-04-14T07:30:57.507Z,1014.34
2024-04-14T07:36:12.382Z,1014.38
2024-04-14T07:41:27.419Z,1014.30
2024-04-14T07:46:44.275Z,1014.33
2024-04-14T07:51:59.257Z,1014.33
2024-04-14T07:57:14.128Z,1014.44
2024-04-14T08:02:29.045Z,1014.51
2024-04-14T08:07:43.945Z,1014.58
2024-04-14T08:12:58.857Z,1014.64
2024-04-14T08:18:13.755Z,1014.69
2024-04-14T08:23:28.554Z,1014.69
2024-04-14T08:28:43.477Z,1014.72
2024-04-14T08:33:58.608Z,1014.67
2024-04-14T08:39:13.314Z,1014.72
2024-04-14T08:44:28.330Z,1014.65
2024-04-14T08:49:43.151Z,1014.68
2024-04-14T08:54:58.071Z,1014.73
2024-04-14T09:00:12.947Z,1014.66
2024-04-14T09:05:27.780Z,1014.70
2024-04-14T09:10:42.725Z,1014.58
2024-04-14T09:15:57.685Z,1014.69
2024-04-14T09:21:12.340Z,1014.71
2024-04-14T09:26:27.305Z,1014.65
2024-04-14T09:31:44.104Z,1014.66
2024-04-14T09:36:59.012Z,1014.67
2024-04-14T09:42:13.894Z,1014.73
2024-04-14T09:47:31.025Z,1014.75
2024-04-14T09:52:45.666Z,1014.77
2024-04-14T09:58:00.702Z,1014.72
2024-04-14T10:03:18.458Z,1014.64
2024-04-14T10:08:32.498Z,1014.64
2024-04-14T10:13:47.275Z,1014.57
2024-04-14T10:19:02.157Z,1014.51
2024-04-14T10:24:16.892Z,1014.63
2024-04-14T10:29:31.850Z,1014.73
2024-04-14T10:34:46.610Z,1014.71
2024-04-14T10:40:01.505Z,1014.74
2024-04-14T10:45:16.316Z,1014.75
2024-04-14T10:50:31.292Z,1014.67
2024-04-14T10:55:46.112Z,1014.65
2024-04-14T11:01:01.049Z,1014.55
2024-04-14T11:06:15.860Z,1014.54
2024-04-14T11:11:30.896Z,1014.46
2024-04-14T11:16:45.834Z,1014.44
2024-04-14T11:22:02.776Z,1014.45
2024-04-14T11:27:17.496Z,1014.37
2024-04-14T11:32:32.460Z,1014.38
2024-04-14T11:37:47.257Z,1014.39
2024-04-14T11:43:02.148Z,1014.49
2024-04-14T11:48:17.065Z,1014.39
2024-04-14T11:53:32.039Z,1014.40
2024-04-14T11:58:47.133Z,1014.33
2024-04-14T12:04:01.900Z,1014.34
2024-04-14T12:09:16.753Z,1014.26
2024-04-14T12:14:31.600Z,1014.15
2024-04-14T12:19:46.397Z,1014.02
2024-04-14T12:25:01.276Z,1013.98
2024-04-14T12:30:16.149Z,1013.96
2024-04-14T12:35:31.051Z,1013.90
2024-04-14T12:40:45.831Z,1013.88
2024-04-14T12:46:00.851Z,1013.86
2024-04-14T12:51:15.462Z,1013.74
2024-04-14T12:56:30.331Z,1013.71
2024-04-14T13:01:45.303Z,1013.66
2024-04-14T13:07:00.234Z,1013.52
2024-04-14T13:12:15.022Z,1013.54
2024-04-14T13:17:29.824Z,1013.32
2024-04-14T13:22:44.684Z,1013.33
2024-04-14T13:27:59.538Z,1013.21
2024-04-14T13:33:14.560Z,1013.13
2024-04-14T13:38:29.324Z,1013.09
2024-04-14T13:43:44.181Z,1013.14
2024-04-14T13:48:59.053Z,1013.03
2024-04-14T13:54:13.937Z,1012.90
2024-04-14T13:59:28.869Z,1012.88
2024-04-14T14:04:43.781Z,1012.89
2024-04-14T14:09:58.473Z,1012.76
2024-04-14T14:15:13.322Z,1012.72
2024-04-14T14:20:28.247Z,1012.68
2024-04-14T14:25:43.178Z,1012.68
2024-04-14T14:30:58.084Z,1012.57
2024-04-14T14:36:13.082Z,1012.42
2024-04-14T14:41:28.054Z,1012.34
2024-04-14T14:46:42.980Z,1012.30
2024-04-14T14:51:57.941Z,1012.35
2024-04-14T14:57:12.794Z,1012.31
2024-04-14T15:02:27.680Z,1012.33
2024-04-14T15:07:42.584Z,1012.25
2024-04-14T15:12:57.572Z,1012.19
2024-04-14T15:18:12.843Z,1012.11
2024-04-14T15:23:27.777Z,1012.08
2024-04-14T15:28:42.781Z,1012.00
2024-04-14T15:33:57.648Z,1011.95
2024-04-14T15:39:14.524Z,1011.93
2024-04-14T15:44:29.434Z,1011.93
2024-04-14T15:49:44.333Z,1011.98
2024-04-14T15:54:59.391Z,1011.95
2024-04-14T16:00:14.271Z,1011.84
2024-04-14T16:05:29.327Z,1011.79
2024-04-14T16:10:43.971Z,1011.67
2024-04-14T16:15:58.955Z,1011.66
2024-04-14T16:21:13.890Z,1011.58
2024-04-14T16:26:28.826Z,1011.55
2024-04-14T16:31:43.685Z,1011.44
2024-04-14T16:36:58.635Z,1011.45
2024-04-14T16:42:13.460Z,1011.36
2024-04-14T16:47:28.455Z,1011.31
2024-04-14T16:52:43.295Z,1011.28
2024-04-14T16:57:58.146Z,1011.25
2024-04-14T17:03:12.945Z,1011.17
2024-04-14T17:08:28.689Z,1011.05
2024-04-14T17:13:42.618Z,1011.00
2024-04-14T17:18:57.607Z,1010.99
2024-04-14T17:24:12.335Z,1010.96
2024-04-14T17:29:27.371Z,1010.83
2024-04-14T17:34:42.193Z,1010.67
2024-04-14T17:39:57.101Z,1010.63
2024-04-14T17:45:11.769Z,1010.61
2024-04-14T17:50:26.992Z,1010.46
2024-04-14T17:55:41.506Z,1010.42
2024-04-14T18:00:56.392Z,1010.37
2024-04-14T18:06:11.288Z,1010.29
2024-04-14T18:11:26.148Z,1010.23
2024-04-14T18:16:41.109Z,1010.20
2024-04-14T18:21:56.004Z,1010.14
2024-04-14T18:27:10.853Z,1010.10
2024-04-14T18:32:25.657Z,1010.04
2024-04-14T18:37:40.569Z,1010.02
2024-04-14T18:42:55.455Z,1009.91
2024-04-14T18:48:10.372Z,1009.88
2024-04-14T18:53:25.555Z,1009.87
2024-04-14T18:58:40.296Z,1009.77
2024-04-14T19:03:55.312Z,1009.74
2024-04-14T19:09:10.218Z,1009.69
2024-04-14T19:14:25.011Z,1009.56
2024-04-14T19:19:39.984Z,1009.55
2024-04-14T19:24:54.896Z,1009.56
2024-04-14T19:30:09.778Z,1009.53
2024-04-14T19:35:25.922Z,1009.59
2024-04-14T19:40:39.489Z,1009.53
2024-04-14T19:45:54.391Z,1009.46
2024-04-14T19:51:11.183Z,1009.45
2024-04-14T19:56:26.060Z,1009.41
2024-04-14T20:01:41.167Z,1009.34
2024-04-14T20:06:56.023Z,1009.31
2024-04-14T20:12:10.756Z,1009.25
2024-04-14T20:17:25.674Z,1009.31
2024-04-14T20:22:40.632Z,1009.28
2024-04-14T20:27:55.452Z,1009.18
2024-04-14T20:33:10.298Z,1009.09
2024-04-14T20:38:25.288Z,1009.03
2024-04-14T20:43:40.105Z,1009.03
2024-04-14T20:48:55.153Z,1008.99
2024-04-14T20:54:09.899Z,1008.93
2024-04-14T20:59:24.829Z,1008.98
2024-04-14T21:04:45.881Z,1009.14
2024-04-14T21:09:54.562Z,1009.15
2024-04-14T21:15:09.406Z,1009.06
2024-04-14T21:20:24.381Z,1009.03
2024-04-14T21:25:41.296Z,1008.98
2024-04-14T21:30:56.260Z,1008.72
2024-04-14T21:36:11.059Z,1008.72
2024-04-14T21:41:25.962Z,1008.76
2024-04-14T21:46:40.840Z,1008.95
2024-04-14T21:51:55.752Z,1009.00
2024-04-14T21:57:10.986Z,1008.97
2024-04-14T22:02:25.913Z,1008.91
2024-04-14T22:07:40.757Z,1009.02
2024-04-14T22:12:55.743Z,1009.06
2024-04-14T22:18:10.967Z,1009.01
2024-04-14T22:23:25.784Z,1008.95
2024-04-14T22:28:40.715Z,1008.96
2024-04-14T22:33:55.680Z,1008.87
2024-04-14T22:39:10.542Z,1008.92
2024-04-14T22:44:25.519Z,1008.97
2024-04-14T22:49:40.485Z,1008.93
2024-04-14T22:54:57.228Z,1008.85
2024-04-14T23:00:12.177Z,1008.72
2024-04-14T23:05:27.054Z,1008.71
2024-04-14T23:10:41.882Z,1008.42
2024-04-14T23:15:56.787Z,1008.37
2024-04-14T23:21:11.679Z,1008.35
2024-04-14T23:26:26.634Z,1008.40
2024-04-14T23:31:41.472Z,1008.28
2024-04-14T23:36:56.630Z,1008.31
2024-04-14T23:42:11.316Z,1008.15
2024-04-14T23:47:26.430Z,1008.10
2024-04-14T23:52:41.078Z,1007.98
2024-04-14T23:57:56.094Z,1007.80
